sensor_id;sensor_type;location;lat;lon;timestamp;temperature;humidity
12981;DHT22;6555;50.468;8.480;2022-09-09T00:02:18;20.30;49.40
12981;DHT22;6555;50.468;8.480;2022-09-09T00:07:27;20.30;49.90
12981;DHT22;6555;50.468;8.480;2022-09-09T00:12:39;20.30;49.70
12981;DHT22;6555;50.468;8.480;2022-09-09T00:17:52;20.30;49.80
12981;DHT22;6555;50.468;8.480;2022-09-09T00:23:01;20.30;50.00
12981;DHT22;6555;50.468;8.480;2022-09-09T00:28:13;20.30;49.90
12981;DHT22;6555;50.468;8.480;2022-09-09T00:33:21;20.30;50.10
12981;DHT22;6555;50.468;8.480;2022-09-09T00:38:33;20.30;49.90
12981;DHT22;6555;50.468;8.480;2022-09-09T00:43:39;20.20;50.00
12981;DHT22;6555;50.468;8.480;2022-09-09T00:48:50;20.20;50.00
12981;DHT22;6555;50.468;8.480;2022-09-09T00:54:06;20.20;50.30
12981;DHT22;6555;50.468;8.480;2022-09-09T00:59:23;20.20;50.60
12981;DHT22;6555;50.468;8.480;2022-09-09T01:04:34;20.20;50.60
12981;DHT22;6555;50.468;8.480;2022-09-09T01:09:51;20.10;50.50
12981;DHT22;6555;50.468;8.480;2022-09-09T01:15:01;20.10;50.70
12981;DHT22;6555;50.468;8.480;2022-09-09T01:20:13;20.10;50.90
12981;DHT22;6555;50.468;8.480;2022-09-09T01:25:30;20.10;51.00
12981;DHT22;6555;50.468;8.480;2022-09-09T01:30:43;20.10;50.90
12981;DHT22;6555;50.468;8.480;2022-09-09T01:35:52;20.10;50.90
12981;DHT22;6555;50.468;8.480;2022-09-09T01:41:00;20.00;50.90
12981;DHT22;6555;50.468;8.480;2022-09-09T01:46:16;20.00;50.80
12981;DHT22;6555;50.468;8.480;2022-09-09T01:51:20;20.00;50.90
12981;DHT22;6555;50.468;8.480;2022-09-09T01:56:34;20.10;50.90
12981;DHT22;6555;50.468;8.480;2022-09-09T02:01:49;20.10;51.30
12981;DHT22;6555;50.468;8.480;2022-09-09T02:06:56;20.10;51.30
12981;DHT22;6555;50.468;8.480;2022-09-09T02:12:08;20.00;50.80
12981;DHT22;6555;50.468;8.480;2022-09-09T02:17:26;20.00;51.10
12981;DHT22;6555;50.468;8.480;2022-09-09T02:22:41;20.00;51.20
12981;DHT22;6555;50.468;8.480;2022-09-09T02:27:50;20.00;51.10
12981;DHT22;6555;50.468;8.480;2022-09-09T02:32:56;20.00;51.20
12981;DHT22;6555;50.468;8.480;2022-09-09T02:38:16;19.90;51.30
12981;DHT22;6555;50.468;8.480;2022-09-09T02:43:33;19.90;51.10
12981;DHT22;6555;50.468;8.480;2022-09-09T02:48:47;19.90;51.20
12981;DHT22;6555;50.468;8.480;2022-09-09T02:53:59;19.90;51.60
12981;DHT22;6555;50.468;8.480;2022-09-09T02:59:07;19.90;51.50
12981;DHT22;6555;50.468;8.480;2022-09-09T03:04:12;19.90;51.40
12981;DHT22;6555;50.468;8.480;2022-09-09T03:09:16;19.80;51.50
12981;DHT22;6555;50.468;8.480;2022-09-09T03:14:19;19.80;51.50
12981;DHT22;6555;50.468;8.480;2022-09-09T03:19:25;19.80;51.70
12981;DHT22;6555;50.468;8.480;2022-09-09T03:24:29;19.80;51.80
12981;DHT22;6555;50.468;8.480;2022-09-09T03:29:32;19.80;51.80
12981;DHT22;6555;50.468;8.480;2022-09-09T03:34:41;19.90;51.90
12981;DHT22;6555;50.468;8.480;2022-09-09T03:39:47;19.90;52.00
12981;DHT22;6555;50.468;8.480;2022-09-09T03:44:52;19.90;51.80
12981;DHT22;6555;50.468;8.480;2022-09-09T03:49:59;19.90;51.80
12981;DHT22;6555;50.468;8.480;2022-09-09T03:55:04;19.90;51.80
12981;DHT22;6555;50.468;8.480;2022-09-09T04:00:09;20.00;51.90
12981;DHT22;6555;50.468;8.480;2022-09-09T04:05:21;20.00;51.90
12981;DHT22;6555;50.468;8.480;2022-09-09T04:10:24;20.00;52.00
12981;DHT22;6555;50.468;8.480;2022-09-09T04:15:30;19.90;52.00
12981;DHT22;6555;50.468;8.480;2022-09-09T04:20:35;19.90;52.00
12981;DHT22;6555;50.468;8.480;2022-09-09T04:25:43;19.90;52.10
12981;DHT22;6555;50.468;8.480;2022-09-09T04:30:49;19.80;52.30
12981;DHT22;6555;50.468;8.480;2022-09-09T04:35:53;19.80;52.20
12981;DHT22;6555;50.468;8.480;2022-09-09T04:40:59;19.70;52.20
12981;DHT22;6555;50.468;8.480;2022-09-09T04:46:04;19.70;52.20
12981;DHT22;6555;50.468;8.480;2022-09-09T04:51:11;19.70;52.40
12981;DHT22;6555;50.468;8.480;2022-09-09T04:56:17;19.70;52.70
12981;DHT22;6555;50.468;8.480;2022-09-09T05:01:25;19.70;52.60
12981;DHT22;6555;50.468;8.480;2022-09-09T05:06:36;19.70;52.60
12981;DHT22;6555;50.468;8.480;2022-09-09T05:11:40;19.70;52.80
12981;DHT22;6555;50.468;8.480;2022-09-09T05:16:59;19.70;52.70
12981;DHT22;6555;50.468;8.480;2022-09-09T05:22:04;19.70;52.70
12981;DHT22;6555;50.468;8.480;2022-09-09T05:27:15;19.70;52.80
12981;DHT22;6555;50.468;8.480;2022-09-09T05:32:17;19.70;52.70
12981;DHT22;6555;50.468;8.480;2022-09-09T05:37:24;19.70;52.80
12981;DHT22;6555;50.468;8.480;2022-09-09T05:42:30;19.70;53.10
12981;DHT22;6555;50.468;8.480;2022-09-09T05:47:34;19.60;53.00
12981;DHT22;6555;50.468;8.480;2022-09-09T05:52:42;19.60;52.90
12981;DHT22;6555;50.468;8.480;2022-09-09T05:57:48;19.60;53.10
12981;DHT22;6555;50.468;8.480;2022-09-09T06:02:54;19.60;53.20
12981;DHT22;6555;50.468;8.480;2022-09-09T06:07:59;19.60;53.10
12981;DHT22;6555;50.468;8.480;2022-09-09T06:13:03;19.70;53.30
12981;DHT22;6555;50.468;8.480;2022-09-09T06:18:06;19.70;53.10
12981;DHT22;6555;50.468;8.480;2022-09-09T06:23:10;19.80;53.30
12981;DHT22;6555;50.468;8.480;2022-09-09T06:28:14;19.80;53.40
12981;DHT22;6555;50.468;8.480;2022-09-09T06:33:17;19.90;53.40
12981;DHT22;6555;50.468;8.480;2022-09-09T06:38:22;19.90;53.40
12981;DHT22;6555;50.468;8.480;2022-09-09T06:43:28;19.90;53.50
12981;DHT22;6555;50.468;8.480;2022-09-09T06:48:31;19.90;53.40
12981;DHT22;6555;50.468;8.480;2022-09-09T06:53:37;20.00;53.60
12981;DHT22;6555;50.468;8.480;2022-09-09T06:58:41;20.10;53.80
12981;DHT22;6555;50.468;8.480;2022-09-09T07:03:50;20.10;53.80
12981;DHT22;6555;50.468;8.480;2022-09-09T07:08:57;20.30;54.00
12981;DHT22;6555;50.468;8.480;2022-09-09T07:14:02;20.40;53.80
12981;DHT22;6555;50.468;8.480;2022-09-09T07:19:05;20.50;53.70
12981;DHT22;6555;50.468;8.480;2022-09-09T07:24:10;20.60;53.60
12981;DHT22;6555;50.468;8.480;2022-09-09T07:29:16;20.70;53.70
12981;DHT22;6555;50.468;8.480;2022-09-09T07:34:23;20.70;53.50
12981;DHT22;6555;50.468;8.480;2022-09-09T07:39:27;20.80;53.30
12981;DHT22;6555;50.468;8.480;2022-09-09T07:44:31;20.80;53.30
12981;DHT22;6555;50.468;8.480;2022-09-09T07:49:44;20.90;53.40
12981;DHT22;6555;50.468;8.480;2022-09-09T07:54:51;20.90;53.30
12981;DHT22;6555;50.468;8.480;2022-09-09T07:59:55;20.90;53.30
12981;DHT22;6555;50.468;8.480;2022-09-09T08:04:59;21.00;53.10
12981;DHT22;6555;50.468;8.480;2022-09-09T08:10:03;21.00;53.20
12981;DHT22;6555;50.468;8.480;2022-09-09T08:15:10;21.00;53.10
12981;DHT22;6555;50.468;8.480;2022-09-09T08:20:15;21.10;53.30
12981;DHT22;6555;50.468;8.480;2022-09-09T08:25:20;21.10;53.30
12981;DHT22;6555;50.468;8.480;2022-09-09T08:30:23;21.10;53.10
12981;DHT22;6555;50.468;8.480;2022-09-09T08:35:26;21.20;53.00
12981;DHT22;6555;50.468;8.480;2022-09-09T08:40:35;21.20;53.70
12981;DHT22;6555;50.468;8.480;2022-09-09T08:45:50;21.20;53.00
12981;DHT22;6555;50.468;8.480;2022-09-09T08:50:58;21.30;53.00
12981;DHT22;6555;50.468;8.480;2022-09-09T08:56:11;21.40;53.20
12981;DHT22;6555;50.468;8.480;2022-09-09T09:01:35;21.50;53.30
12981;DHT22;6555;50.468;8.480;2022-09-09T09:06:47;21.70;53.40
12981;DHT22;6555;50.468;8.480;2022-09-09T09:11:54;22.00;52.90
12981;DHT22;6555;50.468;8.480;2022-09-09T09:17:11;22.20;52.80
12981;DHT22;6555;50.468;8.480;2022-09-09T09:22:18;22.40;52.30
12981;DHT22;6555;50.468;8.480;2022-09-09T09:27:31;22.50;52.30
12981;DHT22;6555;50.468;8.480;2022-09-09T09:32:36;22.70;52.30
12981;DHT22;6555;50.468;8.480;2022-09-09T09:37:42;22.90;52.00
12981;DHT22;6555;50.468;8.480;2022-09-09T09:43:20;23.10;51.70
12981;DHT22;6555;50.468;8.480;2022-09-09T09:48:25;23.20;50.80
12981;DHT22;6555;50.468;8.480;2022-09-09T09:53:30;23.40;50.90
12981;DHT22;6555;50.468;8.480;2022-09-09T09:58:48;23.50;50.30
12981;DHT22;6555;50.468;8.480;2022-09-09T10:03:58;23.50;50.00
12981;DHT22;6555;50.468;8.480;2022-09-09T10:09:04;23.40;50.10
12981;DHT22;6555;50.468;8.480;2022-09-09T10:14:29;23.30;50.10
12981;DHT22;6555;50.468;8.480;2022-09-09T10:19:36;23.20;50.50
12981;DHT22;6555;50.468;8.480;2022-09-09T10:24:59;23.10;50.20
12981;DHT22;6555;50.468;8.480;2022-09-09T10:30:11;23.00;50.40
12981;DHT22;6555;50.468;8.480;2022-09-09T10:35:30;22.90;50.40
12981;DHT22;6555;50.468;8.480;2022-09-09T10:40:38;22.90;50.40
12981;DHT22;6555;50.468;8.480;2022-09-09T10:45:53;22.90;50.30
12981;DHT22;6555;50.468;8.480;2022-09-09T10:51:05;22.60;50.10
12981;DHT22;6555;50.468;8.480;2022-09-09T10:56:15;22.30;50.90
12981;DHT22;6555;50.468;8.480;2022-09-09T11:01:22;22.10;51.40
12981;DHT22;6555;50.468;8.480;2022-09-09T11:06:32;22.10;51.80
12981;DHT22;6555;50.468;8.480;2022-09-09T11:11:43;22.10;52.70
12981;DHT22;6555;50.468;8.480;2022-09-09T11:16:52;22.20;53.40
12981;DHT22;6555;50.468;8.480;2022-09-09T11:21:57;22.40;52.90
12981;DHT22;6555;50.468;8.480;2022-09-09T11:27:06;22.60;52.20
12981;DHT22;6555;50.468;8.480;2022-09-09T11:32:25;22.70;52.10
12981;DHT22;6555;50.468;8.480;2022-09-09T11:37:53;22.80;52.20
12981;DHT22;6555;50.468;8.480;2022-09-09T11:43:04;22.80;52.00
12981;DHT22;6555;50.468;8.480;2022-09-09T11:48:23;22.90;52.30
12981;DHT22;6555;50.468;8.480;2022-09-09T11:53:27;22.90;52.20
12981;DHT22;6555;50.468;8.480;2022-09-09T11:58:39;23.00;51.80
12981;DHT22;6555;50.468;8.480;2022-09-09T12:03:46;23.10;52.10
12981;DHT22;6555;50.468;8.480;2022-09-09T12:08:51;23.10;51.70
12981;DHT22;6555;50.468;8.480;2022-09-09T12:13:58;23.20;51.50
12981;DHT22;6555;50.468;8.480;2022-09-09T12:19:14;23.20;51.40
12981;DHT22;6555;50.468;8.480;2022-09-09T12:24:23;23.20;50.90
12981;DHT22;6555;50.468;8.480;2022-09-09T12:29:36;23.20;51.00
12981;DHT22;6555;50.468;8.480;2022-09-09T12:34:43;23.30;50.40
12981;DHT22;6555;50.468;8.480;2022-09-09T12:39:51;23.40;50.30
12981;DHT22;6555;50.468;8.480;2022-09-09T12:44:56;23.40;50.00
12981;DHT22;6555;50.468;8.480;2022-09-09T12:50:00;23.40;49.90
12981;DHT22;6555;50.468;8.480;2022-09-09T12:55:05;23.40;50.10
12981;DHT22;6555;50.468;8.480;2022-09-09T13:00:15;23.50;50.00
12981;DHT22;6555;50.468;8.480;2022-09-09T13:05:21;23.50;49.20
12981;DHT22;6555;50.468;8.480;2022-09-09T13:10:27;23.40;48.10
12981;DHT22;6555;50.468;8.480;2022-09-09T13:15:50;23.20;48.10
12981;DHT22;6555;50.468;8.480;2022-09-09T13:20:55;23.00;48.50
12981;DHT22;6555;50.468;8.480;2022-09-09T13:26:01;22.90;49.30
12981;DHT22;6555;50.468;8.480;2022-09-09T13:31:20;22.70;49.40
12981;DHT22;6555;50.468;8.480;2022-09-09T13:36:30;22.50;50.00
12981;DHT22;6555;50.468;8.480;2022-09-09T13:41:35;22.50;50.90
12981;DHT22;6555;50.468;8.480;2022-09-09T13:46:39;22.60;51.80
12981;DHT22;6555;50.468;8.480;2022-09-09T13:51:46;22.80;51.10
12981;DHT22;6555;50.468;8.480;2022-09-09T13:56:50;23.00;51.50
12981;DHT22;6555;50.468;8.480;2022-09-09T14:01:53;23.30;51.60
12981;DHT22;6555;50.468;8.480;2022-09-09T14:06:57;23.70;51.20
12981;DHT22;6555;50.468;8.480;2022-09-09T14:12:01;24.00;50.60
12981;DHT22;6555;50.468;8.480;2022-09-09T14:17:04;24.30;50.10
12981;DHT22;6555;50.468;8.480;2022-09-09T14:22:10;24.40;49.50
12981;DHT22;6555;50.468;8.480;2022-09-09T14:27:13;24.40;49.20
12981;DHT22;6555;50.468;8.480;2022-09-09T14:32:19;24.40;49.20
12981;DHT22;6555;50.468;8.480;2022-09-09T14:37:24;24.30;48.30
12981;DHT22;6555;50.468;8.480;2022-09-09T14:42:27;24.20;48.10
12981;DHT22;6555;50.468;8.480;2022-09-09T14:47:31;24.00;48.00
12981;DHT22;6555;50.468;8.480;2022-09-09T14:52:36;23.80;48.00
12981;DHT22;6555;50.468;8.480;2022-09-09T14:57:39;23.60;48.10
12981;DHT22;6555;50.468;8.480;2022-09-09T15:02:42;23.40;47.90
12981;DHT22;6555;50.468;8.480;2022-09-09T15:07:46;23.20;48.00
12981;DHT22;6555;50.468;8.480;2022-09-09T15:12:49;23.10;48.30
12981;DHT22;6555;50.468;8.480;2022-09-09T15:17:52;23.00;48.80
12981;DHT22;6555;50.468;8.480;2022-09-09T15:22:57;23.00;49.20
12981;DHT22;6555;50.468;8.480;2022-09-09T15:27:59;23.00;49.00
12981;DHT22;6555;50.468;8.480;2022-09-09T15:33:07;23.00;48.90
12981;DHT22;6555;50.468;8.480;2022-09-09T15:38:15;23.00;48.70
12981;DHT22;6555;50.468;8.480;2022-09-09T15:43:18;22.90;48.40
12981;DHT22;6555;50.468;8.480;2022-09-09T15:48:29;22.80;48.20
12981;DHT22;6555;50.468;8.480;2022-09-09T15:53:34;22.70;48.40
12981;DHT22;6555;50.468;8.480;2022-09-09T15:58:37;22.50;48.50
12981;DHT22;6555;50.468;8.480;2022-09-09T16:03:41;22.40;48.70
12981;DHT22;6555;50.468;8.480;2022-09-09T16:08:50;22.20;48.90
12981;DHT22;6555;50.468;8.480;2022-09-09T16:13:54;22.10;49.10
12981;DHT22;6555;50.468;8.480;2022-09-09T16:18:59;21.90;49.30
12981;DHT22;6555;50.468;8.480;2022-09-09T16:24:04;21.80;49.50
12981;DHT22;6555;50.468;8.480;2022-09-09T16:29:08;21.70;50.10
12981;DHT22;6555;50.468;8.480;2022-09-09T16:34:11;21.60;50.20
12981;DHT22;6555;50.468;8.480;2022-09-09T16:39:18;21.50;50.40
12981;DHT22;6555;50.468;8.480;2022-09-09T16:44:22;21.30;50.60
12981;DHT22;6555;50.468;8.480;2022-09-09T16:49:25;21.30;50.70
12981;DHT22;6555;50.468;8.480;2022-09-09T16:54:30;21.20;50.80
12981;DHT22;6555;50.468;8.480;2022-09-09T16:59:33;21.10;51.10
12981;DHT22;6555;50.468;8.480;2022-09-09T17:04:36;21.10;51.20
12981;DHT22;6555;50.468;8.480;2022-09-09T17:09:42;21.00;51.30
12981;DHT22;6555;50.468;8.480;2022-09-09T17:14:46;20.90;51.70
12981;DHT22;6555;50.468;8.480;2022-09-09T17:19:49;20.80;51.80
12981;DHT22;6555;50.468;8.480;2022-09-09T17:24:53;20.80;52.00
12981;DHT22;6555;50.468;8.480;2022-09-09T17:29:56;20.70;52.10
12981;DHT22;6555;50.468;8.480;2022-09-09T17:35:00;20.60;51.90
12981;DHT22;6555;50.468;8.480;2022-09-09T17:40:05;20.60;52.00
12981;DHT22;6555;50.468;8.480;2022-09-09T17:45:09;20.50;52.20
12981;DHT22;6555;50.468;8.480;2022-09-09T17:50:12;20.40;52.00
12981;DHT22;6555;50.468;8.480;2022-09-09T17:55:16;20.30;52.00
12981;DHT22;6555;50.468;8.480;2022-09-09T18:00:19;20.30;52.10
12981;DHT22;6555;50.468;8.480;2022-09-09T18:05:22;20.20;52.00
12981;DHT22;6555;50.468;8.480;2022-09-09T18:10:27;20.20;52.00
12981;DHT22;6555;50.468;8.480;2022-09-09T18:15:29;20.10;52.10
12981;DHT22;6555;50.468;8.480;2022-09-09T18:20:57;20.10;52.00
12981;DHT22;6555;50.468;8.480;2022-09-09T18:26:06;20.00;52.30
12981;DHT22;6555;50.468;8.480;2022-09-09T18:31:12;19.90;52.30
12981;DHT22;6555;50.468;8.480;2022-09-09T18:36:18;19.80;52.20
12981;DHT22;6555;50.468;8.480;2022-09-09T18:41:24;19.80;52.40
12981;DHT22;6555;50.468;8.480;2022-09-09T18:46:29;19.70;52.70
12981;DHT22;6555;50.468;8.480;2022-09-09T18:51:33;19.70;52.70
12981;DHT22;6555;50.468;8.480;2022-09-09T18:56:39;19.60;52.60
12981;DHT22;6555;50.468;8.480;2022-09-09T19:01:42;19.60;52.80
12981;DHT22;6555;50.468;8.480;2022-09-09T19:06:47;19.60;52.70
12981;DHT22;6555;50.468;8.480;2022-09-09T19:11:51;19.60;52.80
12981;DHT22;6555;50.468;8.480;2022-09-09T19:16:54;19.50;53.00
12981;DHT22;6555;50.468;8.480;2022-09-09T19:21:58;19.50;52.90
12981;DHT22;6555;50.468;8.480;2022-09-09T19:27:05;19.50;52.90
12981;DHT22;6555;50.468;8.480;2022-09-09T19:32:08;19.40;53.20
12981;DHT22;6555;50.468;8.480;2022-09-09T19:37:31;19.40;53.00
12981;DHT22;6555;50.468;8.480;2022-09-09T19:42:36;19.40;53.10
12981;DHT22;6555;50.468;8.480;2022-09-09T19:47:39;19.30;53.20
12981;DHT22;6555;50.468;8.480;2022-09-09T19:52:43;19.30;53.20
12981;DHT22;6555;50.468;8.480;2022-09-09T19:57:47;19.20;53.20
12981;DHT22;6555;50.468;8.480;2022-09-09T20:02:50;19.20;53.30
12981;DHT22;6555;50.468;8.480;2022-09-09T20:08:13;19.10;53.20
12981;DHT22;6555;50.468;8.480;2022-09-09T20:13:17;19.10;53.30
12981;DHT22;6555;50.468;8.480;2022-09-09T20:18:21;19.10;53.50
12981;DHT22;6555;50.468;8.480;2022-09-09T20:23:24;19.00;53.30
12981;DHT22;6555;50.468;8.480;2022-09-09T20:28:29;19.00;53.40
12981;DHT22;6555;50.468;8.480;2022-09-09T20:33:32;18.90;53.60
12981;DHT22;6555;50.468;8.480;2022-09-09T20:38:40;18.80;53.50
12981;DHT22;6555;50.468;8.480;2022-09-09T20:43:48;18.90;53.80
12981;DHT22;6555;50.468;8.480;2022-09-09T20:48:53;18.80;53.90
12981;DHT22;6555;50.468;8.480;2022-09-09T20:54:04;18.80;53.60
12981;DHT22;6555;50.468;8.480;2022-09-09T20:59:10;18.70;53.70
12981;DHT22;6555;50.468;8.480;2022-09-09T21:04:16;18.70;53.80
12981;DHT22;6555;50.468;8.480;2022-09-09T21:09:20;18.70;53.70
12981;DHT22;6555;50.468;8.480;2022-09-09T21:14:25;18.70;53.70
12981;DHT22;6555;50.468;8.480;2022-09-09T21:19:28;18.60;53.60
12981;DHT22;6555;50.468;8.480;2022-09-09T21:24:32;18.60;53.60
12981;DHT22;6555;50.468;8.480;2022-09-09T21:29:37;18.50;53.60
12981;DHT22;6555;50.468;8.480;2022-09-09T21:34:40;18.50;53.90
12981;DHT22;6555;50.468;8.480;2022-09-09T21:39:43;18.40;53.70
12981;DHT22;6555;50.468;8.480;2022-09-09T21:44:50;18.50;53.80
12981;DHT22;6555;50.468;8.480;2022-09-09T21:49:52;18.50;54.00
12981;DHT22;6555;50.468;8.480;2022-09-09T21:54:55;18.40;53.70
12981;DHT22;6555;50.468;8.480;2022-09-09T22:00:00;18.40;53.60
12981;DHT22;6555;50.468;8.480;2022-09-09T22:05:13;18.40;53.90
12981;DHT22;6555;50.468;8.480;2022-09-09T22:10:16;18.40;53.80
12981;DHT22;6555;50.468;8.480;2022-09-09T22:15:21;18.40;54.00
12981;DHT22;6555;50.468;8.480;2022-09-09T22:20:24;18.30;54.10
12981;DHT22;6555;50.468;8.480;2022-09-09T22:25:31;18.30;54.10
12981;DHT22;6555;50.468;8.480;2022-09-09T22:30:35;18.30;54.10
12981;DHT22;6555;50.468;8.480;2022-09-09T22:35:40;18.30;54.40
12981;DHT22;6555;50.468;8.480;2022-09-09T22:40:43;18.30;54.30
12981;DHT22;6555;50.468;8.480;2022-09-09T22:45:48;18.30;54.20
12981;DHT22;6555;50.468;8.480;2022-09-09T22:50:51;18.30;54.30
12981;DHT22;6555;50.468;8.480;2022-09-09T22:55:56;18.40;54.20
12981;DHT22;6555;50.468;8.480;2022-09-09T23:01:08;18.30;54.30
12981;DHT22;6555;50.468;8.480;2022-09-09T23:06:15;18.30;54.80
12981;DHT22;6555;50.468;8.480;2022-09-09T23:11:21;18.30;54.30
12981;DHT22;6555;50.468;8.480;2022-09-09T23:16:27;18.30;54.30
12981;DHT22;6555;50.468;8.480;2022-09-09T23:21:31;18.20;54.60
12981;DHT22;6555;50.468;8.480;2022-09-09T23:26:34;18.20;54.40
12981;DHT22;6555;50.468;8.480;2022-09-09T23:31:40;18.10;54.70
12981;DHT22;6555;50.468;8.480;2022-09-09T23:36:44;18.10;55.10
12981;DHT22;6555;50.468;8.480;2022-09-09T23:41:48;18.10;54.80
12981;DHT22;6555;50.468;8.480;2022-09-09T23:46:53;18.20;55.00
12981;DHT22;6555;50.468;8.480;2022-09-09T23:51:56;18.20;55.10
12981;DHT22;6555;50.468;8.480;2022-09-09T23:57:00;18.20;55.00
